logo
Search for airport 
image banner adimage banner adimage banner ad
image banner ad

SISM - Sérgio Miranda

Located in Macapá, Brazil

ICAO - SISM, IATA -

Data provided by Airmate  

General information

Coordinates: N0°2'25" W51°8'58"
Elevation is 62 feet MSL.
Magnetic variation is -19° East
View others Airports in Amapá

Operational data

Special qualification required
Current time UTC:
Current local time:
METAR: SBMQ 191500Z 09007KT 9999 SCT027 32/22 Q1012
TAF: TAF SBMQ 190916Z 1912/2012 03003KT 8000 SCT016 TX32/1918Z TN26/2009Z BECMG 1912/1914 10007KT BECMG 1915/1917 SCT025 FEW035TCU BECMG 1922/2001 07005KT SCT016 TEMPO 2003/2011 36005KT 6000 BKN007 RMK PHC
View NOTAMs / SUP AIP / TFR affecting this airport [VIEW]
Communications frequencies: [VIEW]

Runways:

RWY identifierQFULength (ft)Width (ft)SurfaceLDA (ft)
08190359OTHER:PIÇ
26190359OTHER:PIÇ

Airport contact information

Address: Macapá Brazil

Satellite view of SISM